Time;durP1;ratioP1;P1;durP2;ratioP2;P2;SDS_P1;SDS_P2;PMS_P1;PMS_P2;Temp;Humidity;BMP_temperature;BMP_pressure;BME280_temperature;BME280_humidity;BME280_pressure;Samples;Min_cycle;Max_cycle;Signal;HPM_P1;HPM_P2
2022/03/03 00:00:25;;;;;;;16.58;10.90;;;4.70;99.90;;;;;;5072732;28;20212;-48
2022/03/03 00:02:50;;;;;;;20.55;12.52;;;4.60;99.90;;;;;;5072347;28;20226;-48
2022/03/03 00:05:16;;;;;;;14.57;8.38;;;4.60;99.90;;;;;;5071746;28;20635;-49
2022/03/03 00:07:42;;;;;;;12.77;8.35;;;4.60;99.90;;;;;;5072633;28;20170;-48
2022/03/03 00:10:08;;;;;;;13.43;8.27;;;4.50;99.90;;;;;;5072847;28;20170;-48
2022/03/03 00:12:34;;;;;;;16.05;8.18;;;4.60;99.90;;;;;;5072373;28;20223;-49
2022/03/03 00:15:00;;;;;;;13.27;7.60;;;4.60;99.90;;;;;;5072230;28;20170;-48
2022/03/03 00:17:25;;;;;;;14.70;8.18;;;4.60;99.90;;;;;;5072204;28;20661;-48
2022/03/03 00:19:51;;;;;;;12.10;8.32;;;4.50;99.90;;;;;;5072184;28;20170;-48
2022/03/03 00:22:17;;;;;;;15.35;8.52;;;4.60;99.90;;;;;;5072212;28;20251;-48
2022/03/03 00:24:43;;;;;;;12.75;7.68;;;4.60;99.90;;;;;;5054192;28;20161;-48
2022/03/03 00:27:09;;;;;;;16.17;7.97;;;4.60;99.90;;;;;;5072362;28;20343;-49
2022/03/03 00:29:34;;;;;;;12.93;7.85;;;4.50;99.90;;;;;;5071999;28;20192;-48
2022/03/03 00:32:00;;;;;;;12.90;7.82;;;4.50;99.90;;;;;;5072047;28;20257;-48
2022/03/03 00:34:26;;;;;;;12.10;7.95;;;4.50;99.90;;;;;;5071851;28;20177;-49
2022/03/03 00:36:51;;;;;;;13.10;7.72;;;4.60;99.90;;;;;;5072053;28;20240;-48
2022/03/03 00:39:17;;;;;;;13.77;7.85;;;4.50;99.90;;;;;;5053876;28;20172;-48
2022/03/03 00:41:42;;;;;;;13.85;7.70;;;4.50;99.90;;;;;;5072759;28;20202;-48
2022/03/03 00:44:09;;;;;;;13.60;8.75;;;4.50;99.90;;;;;;5072493;28;20165;-48
2022/03/03 00:46:36;;;;;;;15.73;8.00;;;4.40;99.90;;;;;;5071757;28;20229;-48
2022/03/03 00:49:03;;;;;;;14.27;7.80;;;4.50;99.90;;;;;;5071841;28;20241;-48
2022/03/03 00:51:29;;;;;;;13.07;7.78;;;4.40;99.90;;;;;;5072017;28;20170;-48
2022/03/03 00:53:55;;;;;;;14.90;8.20;;;4.40;99.90;;;;;;5071865;28;20158;-48
2022/03/03 00:56:21;;;;;;;13.18;8.13;;;4.40;99.90;;;;;;5071788;28;20178;-48
2022/03/03 00:58:47;;;;;;;13.57;7.88;;;4.40;99.90;;;;;;5071801;28;20158;-48
2022/03/03 01:01:13;;;;;;;15.20;8.38;;;4.40;99.90;;;;;;5071615;28;20182;-48
2022/03/03 01:03:39;;;;;;;11.57;7.65;;;4.40;99.90;;;;;;5054007;28;20306;-49
2022/03/03 01:06:04;;;;;;;13.27;7.40;;;4.40;99.90;;;;;;5071621;28;20209;-49
2022/03/03 01:08:30;;;;;;;11.60;7.57;;;4.30;99.90;;;;;;5053666;28;20174;-49
2022/03/03 01:10:55;;;;;;;12.70;8.00;;;4.30;99.90;;;;;;5071704;28;20173;-49
2022/03/03 01:13:22;;;;;;;13.50;8.27;;;4.30;99.90;;;;;;5071639;28;20159;-49
2022/03/03 01:15:48;;;;;;;14.45;7.93;;;4.30;99.90;;;;;;5074166;28;20244;-48
2022/03/03 01:18:13;;;;;;;13.68;7.80;;;4.30;99.90;;;;;;5075550;28;20198;-48
2022/03/03 01:20:39;;;;;;;13.23;7.95;;;4.20;99.90;;;;;;5075760;28;20247;-49
2022/03/03 01:23:05;;;;;;;16.27;8.55;;;4.10;99.90;;;;;;5075453;28;20626;-50
2022/03/03 01:25:30;;;;;;;14.98;8.02;;;4.10;99.90;;;;;;5075256;28;20197;-48
2022/03/03 01:27:56;;;;;;;12.13;8.07;;;4.10;99.90;;;;;;5075366;28;20636;-49
2022/03/03 01:30:22;;;;;;;15.35;7.93;;;4.10;99.90;;;;;;5075349;28;20169;-49
2022/03/03 01:32:47;;;;;;;12.30;7.28;;;4.00;99.90;;;;;;5075515;28;20635;-49
2022/03/03 01:35:13;;;;;;;14.35;7.72;;;4.10;99.90;;;;;;5075097;28;20197;-48
2022/03/03 01:37:38;;;;;;;15.98;8.63;;;4.00;99.90;;;;;;5075489;28;20185;-49
2022/03/03 01:40:05;;;;;;;10.35;7.65;;;4.00;99.90;;;;;;5075207;28;20228;-49
2022/03/03 01:42:31;;;;;;;13.52;7.78;;;4.00;99.90;;;;;;5075153;28;20581;-49
2022/03/03 01:44:56;;;;;;;13.60;8.00;;;4.00;99.90;;;;;;5074773;28;20253;-48
2022/03/03 01:47:24;;;;;;;13.85;8.48;;;4.00;99.90;;;;;;5074917;28;20300;-48
2022/03/03 01:49:51;;;;;;;17.98;8.38;;;4.00;99.90;;;;;;5074931;28;20653;-48
2022/03/03 01:52:17;;;;;;;10.95;7.60;;;4.00;99.90;;;;;;5074878;28;20173;-48
2022/03/03 01:54:43;;;;;;;14.93;8.18;;;4.00;99.90;;;;;;5074869;28;20170;-48
2022/03/03 01:57:09;;;;;;;14.63;7.95;;;3.90;99.90;;;;;;5075064;28;20174;-48
2022/03/03 01:59:36;;;;;;;16.73;8.25;;;3.90;99.90;;;;;;5074959;28;20174;-48
2022/03/03 02:02:03;;;;;;;12.15;8.02;;;3.80;99.90;;;;;;5056788;28;20201;-48
2022/03/03 02:04:29;;;;;;;15.15;8.23;;;3.70;99.90;;;;;;5074644;28;20166;-48
2022/03/03 02:06:54;;;;;;;16.75;8.30;;;3.70;99.90;;;;;;5074533;28;20540;-48
2022/03/03 02:09:20;;;;;;;14.60;8.38;;;3.70;99.90;;;;;;5074464;28;20170;-48
2022/03/03 02:11:49;;;;;;;11.45;8.00;;;3.70;99.90;;;;;;5074565;28;20170;-49
2022/03/03 02:14:15;;;;;;;14.50;8.05;;;3.80;99.90;;;;;;5074598;28;20253;-49
2022/03/03 02:16:40;;;;;;;12.70;8.20;;;3.80;99.90;;;;;;5074838;28;20613;-49
2022/03/03 02:19:07;;;;;;;17.23;7.53;;;3.80;99.90;;;;;;5074376;28;20208;-48
2022/03/03 02:21:33;;;;;;;12.73;8.18;;;3.80;99.90;;;;;;5074313;28;20174;-49
2022/03/03 02:23:59;;;;;;;11.15;7.38;;;3.80;99.90;;;;;;5074350;28;20174;-48
2022/03/03 02:26:25;;;;;;;13.35;8.15;;;3.70;99.90;;;;;;5073567;28;20198;-49
2022/03/03 02:28:52;;;;;;;13.88;8.48;;;3.70;99.90;;;;;;5074579;28;20170;-49
2022/03/03 02:31:18;;;;;;;10.05;7.40;;;3.60;99.90;;;;;;5074242;28;20223;-48
2022/03/03 02:33:45;;;;;;;14.70;8.23;;;3.60;99.90;;;;;;5056104;28;20704;-48
2022/03/03 02:36:29;;;;;;;18.23;8.85;;;3.60;99.90;;;;;;5074440;28;20191;-48
2022/03/03 02:39:00;;;;;;;13.35;8.18;;;3.60;99.90;;;;;;5074051;28;20172;-48
2022/03/03 02:41:27;;;;;;;14.38;8.35;;;3.60;99.90;;;;;;5073922;28;20544;-49
2022/03/03 02:43:53;;;;;;;15.20;8.32;;;3.50;99.90;;;;;;5073905;28;20200;-48
2022/03/03 02:46:19;;;;;;;16.00;9.00;;;3.50;99.90;;;;;;5073735;28;20217;-49
2022/03/03 02:48:44;;;;;;;15.52;7.90;;;3.60;99.90;;;;;;5073831;28;20173;-49
2022/03/03 02:51:10;;;;;;;15.27;8.95;;;3.50;99.90;;;;;;5074225;28;20619;-49
2022/03/03 02:53:36;;;;;;;14.07;9.57;;;3.50;99.90;;;;;;5073757;28;20166;-49
2022/03/03 02:56:03;;;;;;;12.88;7.20;;;3.50;99.90;;;;;;5073924;28;20191;-49
2022/03/03 02:58:28;;;;;;;13.55;8.50;;;3.50;99.90;;;;;;5073636;28;20261;-48
2022/03/03 03:00:54;;;;;;;12.57;7.85;;;3.50;99.90;;;;;;5073843;28;20264;-48
2022/03/03 03:03:19;;;;;;;13.85;8.40;;;3.50;99.90;;;;;;5073931;28;20166;-49
2022/03/03 03:05:46;;;;;;;13.15;8.05;;;3.60;99.90;;;;;;5073377;28;20558;-50
2022/03/03 03:08:12;;;;;;;14.35;8.13;;;3.40;99.90;;;;;;5073450;28;20527;-48
2022/03/03 03:10:39;;;;;;;13.02;8.40;;;3.40;99.90;;;;;;5055789;28;20170;-48
2022/03/03 03:13:06;;;;;;;12.40;8.23;;;3.40;99.90;;;;;;5073342;28;20531;-48
2022/03/03 03:15:33;;;;;;;14.48;8.45;;;3.30;99.90;;;;;;5055412;28;20561;-48
2022/03/03 03:18:26;;;;;;;14.05;8.32;;;3.30;99.90;;;;;;5073226;28;20642;-48
2022/03/03 03:20:53;;;;;;;12.65;8.38;;;3.30;99.90;;;;;;5073187;28;20205;-48
2022/03/03 03:23:20;;;;;;;17.58;8.88;;;3.20;99.90;;;;;;5073138;28;20607;-48
2022/03/03 03:25:47;;;;;;;14.40;9.27;;;3.20;99.90;;;;;;5072917;28;20228;-49
2022/03/03 03:28:15;;;;;;;14.55;9.23;;;3.10;99.90;;;;;;5073318;28;20197;-48
2022/03/03 03:30:41;;;;;;;14.68;8.85;;;3.10;99.90;;;;;;5073335;28;20162;-48
2022/03/03 03:33:07;;;;;;;15.32;9.30;;;3.20;99.90;;;;;;5073325;28;20179;-48
2022/03/03 03:35:33;;;;;;;12.52;8.30;;;3.20;99.90;;;;;;5073111;28;20185;-49
2022/03/03 03:37:59;;;;;;;12.38;8.23;;;3.20;99.90;;;;;;5072364;28;20158;-49
2022/03/03 03:40:24;;;;;;;12.35;8.20;;;3.20;99.90;;;;;;5072504;28;20183;-48
2022/03/03 03:42:50;;;;;;;13.48;8.52;;;3.10;99.90;;;;;;5072818;28;20168;-48
2022/03/03 03:45:16;;;;;;;16.98;8.65;;;3.00;99.90;;;;;;5072572;28;20221;-48
2022/03/03 03:47:42;;;;;;;11.45;8.07;;;3.10;99.90;;;;;;5073200;28;20174;-48
2022/03/03 03:50:10;;;;;;;13.15;8.45;;;3.10;99.90;;;;;;5072993;28;20162;-48
2022/03/03 03:52:36;;;;;;;12.68;8.40;;;3.00;99.90;;;;;;5072500;28;20166;-49
2022/03/03 03:55:03;;;;;;;15.57;9.18;;;2.90;99.90;;;;;;5072727;28;20166;-49
2022/03/03 03:57:29;;;;;;;16.60;9.80;;;2.80;99.90;;;;;;5072442;28;20639;-49
2022/03/03 03:59:54;;;;;;;13.43;8.98;;;2.80;99.90;;;;;;5072554;28;20177;-49
2022/03/03 04:02:20;;;;;;;14.02;8.27;;;2.90;99.90;;;;;;5072677;28;20169;-49
2022/03/03 04:04:45;;;;;;;12.77;8.50;;;2.90;99.90;;;;;;5072581;28;20195;-49
2022/03/03 04:07:11;;;;;;;12.77;8.38;;;2.80;99.90;;;;;;5072779;28;20224;-49
2022/03/03 04:09:36;;;;;;;16.38;9.43;;;2.70;99.90;;;;;;5072335;28;20232;-49
2022/03/03 04:12:02;;;;;;;15.90;9.23;;;2.60;99.90;;;;;;5072410;28;20523;-50
2022/03/03 04:14:28;;;;;;;14.02;8.70;;;2.60;99.90;;;;;;5072135;28;20532;-49
2022/03/03 04:16:54;;;;;;;17.55;8.55;;;2.60;99.90;;;;;;5072154;28;20169;-49
2022/03/03 04:19:20;;;;;;;16.65;9.38;;;2.50;99.90;;;;;;5072208;28;20173;-48
2022/03/03 04:21:45;;;;;;;21.27;12.32;;;2.50;99.90;;;;;;5072373;28;20209;-49
2022/03/03 04:24:11;;;;;;;23.08;13.40;;;2.50;99.90;;;;;;5072423;28;20174;-48
2022/03/03 04:26:36;;;;;;;21.20;11.50;;;2.60;99.90;;;;;;5071913;28;20208;-48
2022/03/03 04:29:03;;;;;;;16.42;10.32;;;2.50;99.90;;;;;;5072033;28;20161;-48
2022/03/03 04:31:29;;;;;;;15.93;9.93;;;2.50;99.90;;;;;;5071911;28;20165;-48
2022/03/03 04:33:56;;;;;;;17.23;11.00;;;2.50;99.90;;;;;;5054191;28;20585;-48
2022/03/03 04:36:21;;;;;;;19.30;11.05;;;2.50;99.90;;;;;;5071997;28;20162;-48
2022/03/03 04:38:50;;;;;;;13.80;8.77;;;2.50;99.90;;;;;;5071915;28;20529;-48
2022/03/03 04:41:16;;;;;;;17.63;9.50;;;2.50;99.90;;;;;;5072230;28;20173;-48
2022/03/03 04:43:42;;;;;;;16.15;9.07;;;2.50;99.90;;;;;;5072100;28;20307;-48
2022/03/03 04:46:08;;;;;;;15.23;8.23;;;2.60;99.90;;;;;;5072021;28;20300;-48
2022/03/03 04:48:34;;;;;;;12.48;8.80;;;2.60;99.90;;;;;;5071906;28;20169;-48
2022/03/03 04:51:00;;;;;;;13.48;8.80;;;2.60;99.90;;;;;;5076728;28;20170;-48
2022/03/03 04:53:26;;;;;;;15.82;9.10;;;2.60;99.90;;;;;;5078560;28;20158;-48
2022/03/03 04:55:52;;;;;;;12.68;7.80;;;2.60;99.90;;;;;;5078445;28;20174;-48
2022/03/03 04:58:18;;;;;;;15.20;9.30;;;2.50;99.90;;;;;;5060590;28;20228;-48
2022/03/03 05:00:43;;;;;;;13.43;8.13;;;2.40;99.90;;;;;;5078550;28;20161;-47
2022/03/03 05:03:09;;;;;;;14.48;8.48;;;2.40;99.90;;;;;;5078352;28;20256;-48
2022/03/03 05:05:35;;;;;;;14.98;9.30;;;2.40;99.90;;;;;;5060024;28;20197;-48
2022/03/03 05:08:00;;;;;;;12.68;8.20;;;2.30;99.90;;;;;;5078306;28;20176;-48
2022/03/03 05:10:26;;;;;;;15.85;9.13;;;2.20;99.90;;;;;;5078345;28;20174;-48
2022/03/03 05:12:52;;;;;;;17.35;9.45;;;2.20;99.90;;;;;;5078305;28;20208;-48
2022/03/03 05:15:17;;;;;;;13.90;8.48;;;2.10;99.90;;;;;;5060325;28;20169;-48
2022/03/03 05:17:43;;;;;;;17.38;9.52;;;2.10;99.90;;;;;;5078443;28;20165;-48
2022/03/03 05:20:09;;;;;;;14.82;9.30;;;2.00;99.90;;;;;;5078861;28;20552;-48
2022/03/03 05:22:35;;;;;;;14.18;8.57;;;2.00;99.90;;;;;;5078528;28;20176;-49
2022/03/03 05:25:01;;;;;;;17.17;9.52;;;2.00;99.90;;;;;;5078175;28;20166;-49
2022/03/03 05:27:26;;;;;;;16.38;9.00;;;2.00;99.90;;;;;;5078023;28;20705;-49
2022/03/03 05:29:52;;;;;;;14.10;9.55;;;1.90;99.90;;;;;;5078406;28;20181;-49
2022/03/03 05:32:18;;;;;;;18.92;9.50;;;1.80;99.90;;;;;;5078371;28;20261;-49
2022/03/03 05:34:44;;;;;;;14.93;8.13;;;1.80;99.90;;;;;;5078059;28;20244;-49
2022/03/03 05:37:09;;;;;;;13.93;8.82;;;1.80;99.90;;;;;;5078652;28;20162;-49
2022/03/03 05:39:35;;;;;;;13.30;9.35;;;1.80;99.90;;;;;;5077971;28;20166;-49
2022/03/03 05:42:01;;;;;;;17.38;9.00;;;1.80;99.90;;;;;;5078288;28;20174;-49
2022/03/03 05:44:28;;;;;;;15.50;9.00;;;1.80;99.90;;;;;;5078290;28;20234;-48
2022/03/03 05:46:55;;;;;;;15.90;9.70;;;1.80;99.90;;;;;;5077725;28;20244;-49
2022/03/03 05:49:22;;;;;;;12.52;8.10;;;1.80;99.90;;;;;;5077949;28;20181;-48
2022/03/03 05:51:49;;;;;;;14.07;8.27;;;1.80;99.90;;;;;;5077873;28;20170;-49
2022/03/03 05:54:14;;;;;;;16.38;9.23;;;1.90;99.90;;;;;;5078020;28;20211;-49
2022/03/03 05:56:45;;;;;;;13.90;8.82;;;1.90;99.90;;;;;;5060098;28;20220;-48
2022/03/03 05:59:13;;;;;;;15.85;9.25;;;2.00;99.90;;;;;;5078171;28;20170;-49
2022/03/03 06:01:42;;;;;;;20.30;8.43;;;2.00;99.90;;;;;;5075614;28;20223;-48
2022/03/03 06:04:11;;;;;;;16.25;9.57;;;4.00;99.90;;;;;;5056922;28;20178;-49
2022/03/03 06:06:37;;;;;;;16.95;8.85;;;2.00;99.90;;;;;;5074480;28;20194;-48
2022/03/03 06:09:15;;;;;;;14.23;8.07;;;2.00;99.90;;;;;;5074923;28;20166;-49
2022/03/03 06:12:07;;;;;;;15.80;9.85;;;1.90;99.90;;;;;;5074807;28;20165;-49
2022/03/03 06:14:39;;;;;;;17.63;9.60;;;1.90;99.90;;;;;;5074493;28;20249;-48
2022/03/03 06:17:05;;;;;;;18.08;9.95;;;1.90;99.90;;;;;;5074487;28;20249;-49
2022/03/03 06:19:39;;;;;;;14.90;9.38;;;1.90;99.90;;;;;;5074352;28;20600;-49
2022/03/03 06:22:06;;;;;;;15.90;10.60;;;2.00;99.90;;;;;;5074589;28;20169;-49
2022/03/03 06:24:32;;;;;;;13.45;8.95;;;1.90;99.90;;;;;;5074577;28;20170;-49
2022/03/03 06:26:57;;;;;;;22.13;11.82;;;1.90;99.90;;;;;;5074316;28;20701;-49
2022/03/03 06:29:23;;;;;;;19.48;10.13;;;1.90;99.90;;;;;;5074097;28;20174;-49
2022/03/03 06:31:48;;;;;;;16.45;10.07;;;1.90;99.90;;;;;;5074240;28;20170;-49
2022/03/03 06:34:14;;;;;;;15.45;9.35;;;1.90;99.90;;;;;;5074072;28;20170;-49
2022/03/03 06:36:39;;;;;;;16.83;10.48;;;1.90;99.90;;;;;;5074270;28;20248;-49
2022/03/03 06:39:05;;;;;;;16.38;9.18;;;1.90;99.90;;;;;;5073979;28;20250;-49
2022/03/03 06:41:30;;;;;;;15.73;9.48;;;1.90;99.90;;;;;;5073822;28;20254;-49
2022/03/03 06:43:56;;;;;;;16.02;8.70;;;1.80;99.90;;;;;;5074160;28;20193;-49
2022/03/03 06:46:22;;;;;;;20.02;9.45;;;1.80;99.90;;;;;;5073655;28;20230;-48
2022/03/03 06:48:47;;;;;;;22.40;9.82;;;1.80;99.90;;;;;;5074167;28;20211;-49
2022/03/03 06:51:17;;;;;;;18.27;9.80;;;1.80;99.90;;;;;;5073857;28;20174;-49
2022/03/03 06:53:45;;;;;;;16.08;9.73;;;1.80;99.90;;;;;;5073999;28;20181;-49
2022/03/03 06:56:12;;;;;;;17.10;9.18;;;1.80;99.90;;;;;;5074204;28;20512;-49
2022/03/03 06:58:39;;;;;;;15.55;9.68;;;1.80;99.90;;;;;;5074318;28;20196;-49
2022/03/03 07:01:07;;;;;;;20.58;10.73;;;1.70;99.90;;;;;;5073572;28;20163;-48
2022/03/03 07:03:33;;;;;;;17.55;9.55;;;1.90;99.90;;;;;;5073542;28;20169;-49
2022/03/03 07:05:59;;;;;;;14.52;9.38;;;1.90;99.90;;;;;;5073416;28;20209;-49
2022/03/03 07:08:25;;;;;;;15.48;8.80;;;1.90;99.90;;;;;;5073339;28;20635;-49
2022/03/03 07:10:51;;;;;;;15.02;9.02;;;1.80;99.90;;;;;;5053278;28;20185;-48
2022/03/03 07:13:17;;;;;;;17.17;9.40;;;1.90;99.90;;;;;;5071670;28;20173;-48
2022/03/03 07:15:52;;;;;;;22.50;9.45;;;2.00;99.90;;;;;;5072141;28;20247;-49
2022/03/03 07:18:30;;;;;;;24.48;9.23;;;2.10;99.90;;;;;;5071859;28;20268;-49
2022/03/03 07:21:34;;;;;;;15.63;8.80;;;2.20;99.90;;;;;;5071792;28;20170;-49
2022/03/03 07:24:15;;;;;;;19.42;8.77;;;2.30;99.90;;;;;;5071746;28;20527;-48
2022/03/03 07:26:46;;;;;;;25.02;9.90;;;2.40;99.90;;;;;;5071944;28;20201;-46
2022/03/03 07:29:16;;;;;;;26.48;11.65;;;2.50;99.90;;;;;;5071923;28;20170;-48
2022/03/03 07:31:58;;;;;;;17.45;9.38;;;2.50;99.90;;;;;;5071465;28;20224;-49
2022/03/03 07:34:31;;;;;;;20.50;10.35;;;2.60;99.90;;;;;;5071489;28;20208;-49
2022/03/03 07:37:02;;;;;;;23.48;9.68;;;2.80;99.90;;;;;;5054387;28;20174;-49
2022/03/03 07:39:38;;;;;;;15.38;9.88;;;2.90;99.90;;;;;;5071422;28;20201;-47
2022/03/03 07:42:04;;;;;;;28.45;11.20;;;2.90;99.90;;;;;;5071280;28;20211;-49
2022/03/03 07:44:29;;;;;;;17.30;8.90;;;3.00;99.90;;;;;;5071330;28;20170;-48
2022/03/03 07:46:56;;;;;;;18.10;9.90;;;3.00;99.90;;;;;;5071022;28;20237;-48
2022/03/03 07:49:22;;;;;;;25.33;10.63;;;3.10;99.90;;;;;;5071522;28;20212;-50
2022/03/03 07:51:49;;;;;;;17.75;9.10;;;3.20;99.90;;;;;;5071482;28;20201;-48
2022/03/03 07:54:16;;;;;;;17.35;10.68;;;3.30;99.90;;;;;;5071364;28;20539;-47
2022/03/03 07:56:47;;;;;;;17.52;10.23;;;3.30;99.90;;;;;;5053287;28;20554;-47
2022/03/03 07:59:17;;;;;;;15.70;9.00;;;3.30;99.90;;;;;;5071087;28;20169;-47
2022/03/03 08:01:45;;;;;;;17.23;9.45;;;3.40;99.90;;;;;;5071124;28;20162;-47
2022/03/03 08:04:17;;;;;;;15.07;8.63;;;3.60;99.90;;;;;;5070052;28;20173;-47
2022/03/03 08:06:45;;;;;;;16.73;8.38;;;3.60;99.90;;;;;;5071202;28;20266;-47
2022/03/03 08:09:12;;;;;;;13.40;9.05;;;3.60;99.90;;;;;;5069995;28;20178;-47
2022/03/03 08:11:40;;;;;;;13.68;8.90;;;3.60;99.90;;;;;;5052267;28;20661;-47
2022/03/03 08:14:06;;;;;;;13.80;8.98;;;3.80;99.90;;;;;;5070985;28;20253;-47
2022/03/03 08:16:35;;;;;;;13.88;8.98;;;3.90;99.90;;;;;;5070909;28;20245;-47
2022/03/03 08:19:02;;;;;;;14.32;9.18;;;3.80;99.90;;;;;;5070727;28;20166;-48
2022/03/03 08:21:30;;;;;;;16.55;9.32;;;4.10;99.90;;;;;;5070649;28;20174;-47
2022/03/03 08:24:02;;;;;;;16.98;10.35;;;4.10;99.90;;;;;;5070569;28;20158;-48
2022/03/03 08:26:28;;;;;;;17.75;11.18;;;4.20;99.90;;;;;;5070587;28;20210;-48
2022/03/03 08:28:54;;;;;;;20.85;13.23;;;4.50;99.90;;;;;;5070738;28;20169;-48
2022/03/03 08:31:43;;;;;;;19.65;11.40;;;4.70;99.90;;;;;;5068779;28;20178;-48
2022/03/03 08:34:35;;;;;;;23.77;16.23;;;4.80;99.90;;;;;;5070941;28;20177;-48
2022/03/03 08:37:05;;;;;;;13.25;9.80;;;5.00;99.90;;;;;;5070857;28;20239;-48
2022/03/03 08:39:38;;;;;;;16.80;9.77;;;5.00;99.90;;;;;;5070817;28;20699;-48
2022/03/03 08:42:08;;;;;;;12.15;8.45;;;5.20;99.90;;;;;;5070632;28;20170;-48
2022/03/03 08:44:35;;;;;;;12.25;8.95;;;5.10;99.90;;;;;;5070837;28;20188;-48
2022/03/03 08:47:03;;;;;;;16.48;9.55;;;5.10;99.90;;;;;;5070347;28;21446;-47
2022/03/03 08:49:33;;;;;;;14.65;8.93;;;5.20;99.90;;;;;;5070402;28;20230;-48
2022/03/03 08:52:01;;;;;;;14.35;9.63;;;5.40;99.90;;;;;;5070434;28;20188;-48
2022/03/03 08:54:28;;;;;;;18.10;9.60;;;5.40;99.90;;;;;;5069199;28;20166;-48
2022/03/03 08:56:54;;;;;;;16.05;9.50;;;5.40;99.90;;;;;;5070794;28;20177;-48
2022/03/03 08:59:19;;;;;;;18.67;10.10;;;5.50;99.90;;;;;;5070308;28;20649;-48
2022/03/03 09:01:45;;;;;;;11.65;8.20;;;5.60;99.90;;;;;;5063084;28;20584;-48
2022/03/03 09:04:11;;;;;;;11.93;9.38;;;5.70;99.90;;;;;;5050840;28;20180;-48
2022/03/03 09:06:37;;;;;;;19.00;8.73;;;5.90;99.90;;;;;;5050561;28;20225;-48
2022/03/03 09:09:02;;;;;;;15.40;8.27;;;5.90;99.90;;;;;;5050253;28;20640;-48
2022/03/03 09:11:28;;;;;;;15.20;9.20;;;5.90;99.90;;;;;;5050228;28;20166;-47
2022/03/03 09:13:53;;;;;;;15.02;8.55;;;6.10;99.90;;;;;;5050159;28;20170;-48
2022/03/03 09:16:21;;;;;;;14.23;9.07;;;6.10;99.90;;;;;;5050618;28;20509;-48
2022/03/03 09:18:47;;;;;;;14.88;8.20;;;6.20;99.90;;;;;;5050374;28;20178;-48
2022/03/03 09:21:13;;;;;;;19.50;10.10;;;6.20;99.90;;;;;;5050339;28;20183;-47
2022/03/03 09:23:39;;;;;;;14.85;8.50;;;6.50;99.90;;;;;;5050444;28;20216;-48
2022/03/03 09:26:04;;;;;;;14.90;10.13;;;6.50;99.90;;;;;;5049986;28;20198;-48
2022/03/03 09:28:30;;;;;;;16.23;9.65;;;6.50;99.90;;;;;;5050086;28;20173;-48
2022/03/03 09:30:56;;;;;;;13.10;9.55;;;6.50;99.90;;;;;;5050032;28;20189;-48
2022/03/03 09:33:23;;;;;;;13.63;9.40;;;6.70;99.90;;;;;;5050060;28;20175;-48
2022/03/03 09:35:50;;;;;;;14.02;9.15;;;6.80;99.90;;;;;;5032266;28;20257;-48
2022/03/03 09:38:16;;;;;;;16.23;10.00;;;7.00;99.90;;;;;;5052830;28;20189;-48
2022/03/03 09:40:42;;;;;;;13.63;9.50;;;7.00;99.90;;;;;;5053732;28;20628;-48
2022/03/03 09:43:08;;;;;;;14.52;8.95;;;7.20;99.90;;;;;;5053953;28;20189;-48
2022/03/03 09:45:36;;;;;;;14.65;9.95;;;7.20;99.90;;;;;;5053632;28;20640;-48
2022/03/03 09:48:05;;;;;;;14.82;9.85;;;7.40;99.90;;;;;;5053461;28;20250;-48
2022/03/03 09:50:32;;;;;;;13.00;9.10;;;7.40;99.90;;;;;;5053781;28;20171;-48
2022/03/03 09:52:58;;;;;;;14.27;9.73;;;7.60;99.90;;;;;;5053368;28;20286;-48
2022/03/03 09:55:24;;;;;;;14.50;10.43;;;7.70;99.90;;;;;;5053573;28;20257;-48
2022/03/03 09:57:51;;;;;;;16.45;10.23;;;7.80;99.90;;;;;;5035296;28;20527;-48
2022/03/03 10:00:17;;;;;;;13.00;10.05;;;8.00;99.90;;;;;;5053375;28;20159;-48
2022/03/03 10:02:57;;;;;;;13.68;9.25;;;7.80;99.90;;;;;;5053356;28;20170;-48
2022/03/03 10:05:45;;;;;;;14.20;10.38;;;8.00;99.90;;;;;;5053297;28;20382;-48
2022/03/03 10:08:13;;;;;;;12.85;9.85;;;8.30;99.90;;;;;;5053606;28;20640;-48
2022/03/03 10:10:44;;;;;;;15.85;10.35;;;8.10;99.90;;;;;;5053762;28;20170;-47
2022/03/03 10:13:14;;;;;;;16.50;10.48;;;8.20;99.90;;;;;;5053497;28;20171;-47
2022/03/03 10:15:40;;;;;;;15.25;10.95;;;8.40;99.90;;;;;;5053603;28;20185;-48
2022/03/03 10:18:10;;;;;;;14.70;10.60;;;8.50;99.90;;;;;;5052966;28;20280;-49
2022/03/03 10:20:46;;;;;;;15.98;10.80;;;8.30;99.90;;;;;;5053102;28;20163;-48
2022/03/03 10:23:12;;;;;;;18.73;10.98;;;8.60;99.90;;;;;;5053215;28;20178;-47
2022/03/03 10:25:41;;;;;;;38.95;21.20;;;8.50;99.90;;;;;;5053155;28;20643;-48
2022/03/03 10:28:19;;;;;;;24.88;14.68;;;8.50;99.90;;;;;;5055217;28;20265;-48
2022/03/03 10:31:06;;;;;;;33.65;19.30;;;8.60;99.90;;;;;;5073221;28;20197;-48
2022/03/03 10:33:37;;;;;;;36.97;19.85;;;8.70;99.90;;;;;;5071090;28;20174;-48
2022/03/03 10:36:09;;;;;;;50.30;29.67;;;8.80;99.90;;;;;;5072775;28;20166;-48
2022/03/03 10:39:06;;;;;;;24.48;17.60;;;8.80;99.90;;;;;;5070213;28;20185;-47
2022/03/03 10:41:36;;;;;;;82.53;41.38;;;8.90;99.40;;;;;;5060314;28;20177;-48
2022/03/03 10:44:10;;;;;;;41.92;27.15;;;9.10;99.90;;;;;;5072805;28;20181;-48
2022/03/03 10:46:39;;;;;;;18.13;12.43;;;9.20;99.50;;;;;;5072225;28;20209;-48
2022/03/03 10:49:17;;;;;;;23.08;16.77;;;9.40;99.70;;;;;;5072170;28;20196;-48
2022/03/03 10:51:42;;;;;;;22.20;16.27;;;9.40;98.60;;;;;;5072712;28;20173;-48
2022/03/03 10:54:09;;;;;;;17.02;12.75;;;9.70;99.40;;;;;;5073039;28;20538;-48
2022/03/03 10:56:46;;;;;;;31.52;17.02;;;9.60;98.90;;;;;;5072282;28;20262;-48
2022/03/03 10:59:20;;;;;;;19.48;13.63;;;9.50;96.40;;;;;;5072307;28;20170;-48
2022/03/03 11:01:46;;;;;;;15.82;10.77;;;9.60;96.90;;;;;;5072069;28;20170;-48
2022/03/03 11:04:17;;;;;;;19.73;10.43;;;9.70;97.00;;;;;;5072548;28;20178;-48
2022/03/03 11:06:43;;;;;;;14.52;11.88;;;9.90;95.40;;;;;;5072044;28;20209;-47
2022/03/03 11:09:09;;;;;;;16.08;10.55;;;9.90;94.80;;;;;;5072703;28;20263;-48
2022/03/03 11:11:35;;;;;;;20.80;13.23;;;9.90;94.10;;;;;;5072126;28;20170;-48
2022/03/03 11:14:00;;;;;;;16.52;12.15;;;9.80;94.20;;;;;;5072110;28;20162;-48
2022/03/03 11:16:26;;;;;;;17.05;11.45;;;10.00;93.50;;;;;;5071869;28;20253;-48
2022/03/03 11:18:54;;;;;;;18.33;13.40;;;10.10;93.40;;;;;;5072026;28;20170;-48
2022/03/03 11:21:20;;;;;;;20.25;12.82;;;10.00;92.20;;;;;;5071831;28;20158;-48
2022/03/03 11:23:52;;;;;;;19.55;14.95;;;10.10;92.50;;;;;;5072093;28;20176;-48
2022/03/03 11:26:24;;;;;;;20.17;12.10;;;10.40;92.10;;;;;;5071705;28;20289;-48
2022/03/03 11:28:59;;;;;;;18.17;13.32;;;10.50;91.10;;;;;;5071672;28;20560;-48
2022/03/03 11:31:30;;;;;;;21.33;11.30;;;10.60;92.10;;;;;;5071743;28;20248;-48
2022/03/03 11:34:27;;;;;;;15.95;11.43;;;10.50;91.10;;;;;;5071451;28;20635;-48
2022/03/03 11:37:09;;;;;;;19.27;12.98;;;10.50;91.70;;;;;;5071747;28;20174;-48
2022/03/03 11:39:57;;;;;;;15.35;11.23;;;10.70;90.90;;;;;;5071563;28;20158;-48
2022/03/03 11:42:34;;;;;;;14.48;11.60;;;10.80;90.30;;;;;;5071637;28;20303;-47
2022/03/03 11:45:09;;;;;;;16.40;11.40;;;10.80;88.00;;;;;;5071401;28;20165;-48
2022/03/03 11:47:37;;;;;;;15.30;10.90;;;11.00;88.40;;;;;;5071265;28;20677;-48
2022/03/03 11:50:17;;;;;;;16.23;9.32;;;11.00;86.50;;;;;;5071795;28;20635;-48
2022/03/03 11:52:56;;;;;;;15.60;11.55;;;11.00;84.60;;;;;;5071011;28;20590;-48
2022/03/03 11:55:37;;;;;;;15.50;10.50;;;10.90;84.50;;;;;;5071139;28;20249;-48
2022/03/03 11:58:09;;;;;;;12.43;10.20;;;11.20;86.00;;;;;;5071059;28;20176;-48
2022/03/03 12:00:40;;;;;;;15.60;11.40;;;11.10;81.40;;;;;;5070278;28;20256;-48
2022/03/03 12:03:08;;;;;;;12.82;9.63;;;11.10;82.50;;;;;;5071086;28;20185;-48
2022/03/03 12:05:45;;;;;;;14.00;9.77;;;11.10;82.20;;;;;;5070911;28;20176;-48
2022/03/03 12:08:13;;;;;;;14.60;9.73;;;11.10;80.50;;;;;;5071339;28;20169;-48
2022/03/03 12:11:00;;;;;;;11.35;9.98;;;11.10;77.80;;;;;;5071165;28;20201;-48
2022/03/03 12:13:29;;;;;;;11.23;9.30;;;11.30;79.90;;;;;;5071108;28;20176;-48
2022/03/03 12:16:17;;;;;;;14.00;10.60;;;11.30;75.80;;;;;;5070873;28;20632;-48
2022/03/03 12:18:47;;;;;;;14.65;10.10;;;11.20;74.20;;;;;;5070794;28;20178;-48
2022/03/03 12:21:34;;;;;;;18.52;10.25;;;11.30;75.00;;;;;;5070805;28;20162;-48
2022/03/03 12:24:12;;;;;;;12.65;9.82;;;11.40;75.50;;;;;;5060676;28;20182;-47
2022/03/03 12:26:56;;;;;;;11.65;9.45;;;11.30;75.80;;;;;;5070849;28;20700;-48
2022/03/03 12:29:28;;;;;;;13.02;11.07;;;11.40;75.00;;;;;;5070891;28;20260;-48
2022/03/03 12:31:53;;;;;;;22.05;17.90;;;11.50;76.20;;;;;;5070670;28;20170;-48
2022/03/03 12:34:20;;;;;;;15.18;11.60;;;11.70;77.00;;;;;;5070867;28;20170;-48
2022/03/03 12:36:46;;;;;;;16.45;10.98;;;11.70;75.20;;;;;;5070481;28;20251;-48
2022/03/03 12:39:16;;;;;;;13.95;11.23;;;11.80;73.20;;;;;;5070871;28;20262;-48
2022/03/03 12:41:43;;;;;;;14.02;9.65;;;11.90;72.80;;;;;;5070446;28;20177;-48
2022/03/03 12:44:12;;;;;;;16.95;11.63;;;11.90;70.90;;;;;;5071138;28;20186;-51
2022/03/03 12:46:38;;;;;;;13.90;11.48;;;12.00;72.30;;;;;;5070447;28;20229;-55
2022/03/03 12:49:10;;;;;;;16.45;11.05;;;12.10;71.30;;;;;;5070316;28;20575;-49